Time;durP1;ratioP1;P1;durP2;ratioP2;P2;SDS_P1;SDS_P2;PMS_P1;PMS_P2;Temp;Humidity;BMP_temperature;BMP_pressure;BME280_temperature;BME280_humidity;BME280_pressure;Samples;Min_cycle;Max_cycle;Signal;HPM_P1;HPM_P2
2022/07/02 00:07:32;;;;;;;12.23;9.53;;;;;;;22.48;100.00;100553.81;739982;1155;115829;-72
2022/07/02 00:22:35;;;;;;;14.80;11.80;;;;;;;22.41;100.00;100601.11;740025;1155;116136;-71
2022/07/02 00:37:38;;;;;;;19.93;12.58;;;;;;;22.56;100.00;100601.70;739825;1155;116066;-74
2022/07/02 00:52:40;;;;;;;20.73;15.17;;;;;;;22.52;100.00;100595.13;739854;1155;115495;-73
2022/07/02 01:10:16;;;;;;;19.50;15.35;;;;;;;22.32;100.00;100568.39;740071;1155;115683;-72
2022/07/02 01:23:10;;;;;;;20.50;15.87;;;;;;;22.26;100.00;100563.86;740197;1155;115841;-72
2022/07/02 01:38:12;;;;;;;24.13;16.33;;;;;;;22.31;100.00;100542.69;739715;1154;116451;-72
2022/07/02 01:53:15;;;;;;;30.45;17.63;;;;;;;22.56;100.00;100515.35;739816;1153;116291;-72
2022/07/02 02:08:17;;;;;;;28.93;18.08;;;;;;;22.72;100.00;100461.41;739411;1155;115489;-72
2022/07/02 02:23:19;;;;;;;27.43;18.98;;;;;;;22.24;100.00;100437.69;739789;1155;114947;-71
2022/07/02 02:38:22;;;;;;;33.08;19.45;;;;;;;22.01;100.00;100422.91;739989;1155;114815;-73
2022/07/02 02:53:25;;;;;;;34.90;20.70;;;;;;;21.90;100.00;100388.84;740110;1155;115325;-72
2022/07/02 03:08:27;;;;;;;31.25;21.33;;;;;;;21.67;100.00;100440.81;740484;1155;116321;-72
2022/07/02 03:23:29;;;;;;;25.78;17.13;;;;;;;21.47;100.00;100470.09;740220;1155;114832;-72
2022/07/02 03:38:32;;;;;;;40.43;22.70;;;;;;;21.24;100.00;100507.81;741385;1155;115817;-74
2022/07/02 03:53:34;;;;;;;28.58;18.63;;;;;;;20.88;100.00;100567.56;749310;1155;115339;-71
2022/07/02 04:08:36;;;;;;;26.20;16.55;;;;;;;20.99;100.00;100622.18;755642;1154;115144;-72
2022/07/02 04:23:38;;;;;;;18.90;10.83;;;;;;;21.42;100.00;100646.83;751429;1155;116070;-73
2022/07/02 04:38:41;;;;;;;15.00;9.13;;;;;;;22.26;100.00;100662.72;740294;1155;115124;-71
2022/07/02 04:53:44;;;;;;;12.07;7.57;;;;;;;22.72;100.00;100702.05;740262;1154;116197;-72
2022/07/02 05:08:46;;;;;;;12.08;7.28;;;;;;;22.71;100.00;100732.52;740946;1155;114943;-71
2022/07/02 05:23:49;;;;;;;7.65;6.48;;;;;;;22.77;100.00;100738.89;741066;1155;115105;-70
2022/07/02 05:38:51;;;;;;;11.05;6.70;;;;;;;21.84;100.00;100747.45;740756;1155;115927;-73
2022/07/02 05:53:53;;;;;;;6.43;4.43;;;;;;;21.26;100.00;100780.53;740675;1155;114764;-74
2022/07/02 06:08:56;;;;;;;3.75;2.85;;;;;;;20.81;100.00;100795.95;740347;1155;115846;-75
2022/07/02 06:23:58;;;;;;;3.03;2.10;;;;;;;20.21;100.00;100844.05;740933;1155;115288;-79
2022/07/02 06:39:00;;;;;;;3.03;1.10;;;;;;;19.41;100.00;100876.44;741205;1155;115573;-73
2022/07/02 06:54:03;;;;;;;2.50;1.40;;;;;;;19.32;100.00;100896.13;740198;1154;116038;-73
2022/07/02 07:09:05;;;;;;;0.90;0.87;;;;;;;19.31;100.00;100926.38;740933;1155;115786;-71
2022/07/02 07:24:08;;;;;;;1.58;1.05;;;;;;;19.40;100.00;100935.11;740926;1155;116015;-71
2022/07/02 07:39:11;;;;;;;2.75;2.13;;;;;;;19.69;100.00;100960.17;742705;1155;114541;-72
2022/07/02 07:54:13;;;;;;;1.23;0.90;;;;;;;19.57;100.00;100991.70;741730;1155;116106;-72
2022/07/02 08:09:15;;;;;;;1.10;0.83;;;;;;;19.49;100.00;101019.19;740776;1155;114638;-72
2022/07/02 08:24:17;;;;;;;1.75;0.95;;;;;;;19.69;100.00;101038.20;740621;1155;115879;-71
2022/07/02 08:39:20;;;;;;;3.33;2.13;;;;;;;20.01;100.00;101057.63;740650;1155;115098;-71
2022/07/02 08:54:22;;;;;;;3.60;0.93;;;;;;;19.62;100.00;101069.17;740681;1154;115490;-71
2022/07/02 09:09:26;;;;;;;4.33;2.00;;;;;;;19.92;100.00;101095.97;741899;1153;115335;-70
2022/07/02 09:24:42;;;;;;;3.57;1.43;;;;;;;20.20;100.00;101106.89;740946;1155;115140;-73
2022/07/02 09:39:47;;;;;;;1.38;1.25;;;;;;;21.06;100.00;101117.28;740635;1155;115390;-74
2022/07/02 09:54:50;;;;;;;4.60;0.90;;;;;;;21.21;100.00;101124.45;740381;1153;115354;-74
2022/07/02 10:09:52;;;;;;;1.35;0.90;;;;;;;21.20;100.00;101142.27;740454;1153;114993;-77
2022/07/02 10:24:57;;;;;;;1.30;0.80;;;;;;;21.53;100.00;101157.88;740497;1155;115326;-69
2022/07/02 10:40:04;;;;;;;0.67;0.60;;;;;;;21.33;100.00;101156.83;740377;1153;115914;-70
2022/07/02 10:55:06;;;;;;;1.73;1.03;;;;;;;21.25;100.00;101168.41;740454;1155;116007;-70
2022/07/02 11:10:09;;;;;;;1.95;1.10;;;;;;;21.21;100.00;101180.47;741428;1155;115857;-69
2022/07/02 11:25:12;;;;;;;2.25;1.30;;;;;;;21.38;100.00;101189.09;740582;1153;115909;-69
2022/07/02 11:40:22;;;;;;;4.08;1.63;;;;;;;21.57;100.00;101179.73;740533;1155;115117;-69
2022/07/02 11:55:24;;;;;;;3.90;3.03;;;;;;;21.92;100.00;101193.27;739979;1155;115222;-75
2022/07/02 12:10:27;;;;;;;43.13;23.53;;;;;;;22.37;100.00;101199.34;740592;1153;116227;-71
2022/07/02 12:25:29;;;;;;;3.35;2.43;;;;;;;22.24;100.00;101209.88;740630;1154;115675;-73
2022/07/02 12:40:32;;;;;;;8.48;4.70;;;;;;;22.74;100.00;101196.58;740985;1153;114916;-76
2022/07/02 12:55:37;;;;;;;3.80;1.88;;;;;;;23.73;97.72;101183.98;741415;1155;114517;-73
2022/07/02 13:10:41;;;;;;;5.67;2.50;;;;;;;24.07;92.91;101199.16;740322;1155;114245;-77
2022/07/02 13:25:43;;;;;;;6.55;3.60;;;;;;;23.79;91.42;101190.38;740543;1154;114472;-74
2022/07/02 13:40:45;;;;;;;3.93;1.60;;;;;;;24.06;90.58;101205.53;740925;1155;115655;-73
2022/07/02 13:55:48;;;;;;;4.40;2.35;;;;;;;25.33;87.93;101183.22;741179;1155;115599;-73
2022/07/02 14:10:51;;;;;;;3.10;1.50;;;;;;;27.10;82.40;101190.79;740789;1154;115821;-71
2022/07/02 14:25:53;;;;;;;2.18;1.23;;;;;;;27.76;79.48;101166.81;740701;1154;115778;-76
2022/07/02 14:56:18;;;;;;;1.30;0.80;;;;;;;28.38;75.38;101143.05;740728;1153;115102;-74
2022/07/02 15:11:20;;;;;;;2.28;0.90;;;;;;;28.01;75.16;101148.62;741502;1155;115697;-75
2022/07/02 15:26:23;;;;;;;3.30;0.80;;;;;;;27.86;71.34;101138.24;740780;1153;115159;-75
2022/07/02 15:41:30;;;;;;;2.60;1.63;;;;;;;27.67;72.45;101140.16;740298;1154;114289;-74
2022/07/02 15:56:36;;;;;;;3.20;2.23;;;;;;;27.67;72.92;101137.46;740691;1154;114929;-74
2022/07/02 16:11:38;;;;;;;2.77;1.47;;;;;;;27.10;71.39;101131.56;740826;1153;115027;-73
2022/07/02 16:26:42;;;;;;;4.88;1.60;;;;;;;27.38;70.94;101134.56;743343;1154;115920;-73
2022/07/02 16:42:16;;;;;;;3.23;1.93;;;;;;;27.71;71.37;101119.81;743968;1154;116118;-77
2022/07/02 16:57:20;;;;;;;6.10;2.63;;;;;;;27.30;70.68;101110.58;745476;1153;114877;-76
2022/07/02 17:12:24;;;;;;;4.40;1.93;;;;;;;27.35;72.01;101123.38;744799;1153;114460;-77
2022/07/02 17:27:27;;;;;;;6.70;3.33;;;;;;;27.20;72.13;101129.13;742266;1154;115343;-77
2022/07/02 17:42:29;;;;;;;5.75;2.45;;;;;;;26.63;72.80;101127.44;741697;1154;114788;-76
2022/07/02 17:57:33;;;;;;;4.33;1.70;;;;;;;25.89;72.00;101119.13;740457;1155;115269;-81
2022/07/02 18:12:36;;;;;;;4.55;1.78;;;;;;;25.29;73.74;101124.80;740950;1154;115016;-77
2022/07/02 18:27:39;;;;;;;9.83;4.07;;;;;;;24.79;76.10;101114.63;740172;1155;115509;-76
2022/07/02 18:42:41;;;;;;;8.03;4.13;;;;;;;24.27;78.12;101123.31;741315;1154;115462;-74
2022/07/02 18:57:44;;;;;;;8.65;3.80;;;;;;;23.71;81.54;101117.20;741286;1155;115856;-73
2022/07/02 19:12:47;;;;;;;6.95;3.23;;;;;;;23.09;84.21;101135.91;740735;1154;114308;-75
2022/07/02 19:43:13;;;;;;;5.18;2.55;;;;;;;22.00;88.46;101131.74;740517;1153;114513;-76
2022/07/02 19:58:16;;;;;;;9.78;3.00;;;;;;;21.57;90.27;101131.69;740501;1155;114296;-75
2022/07/02 20:13:18;;;;;;;6.75;2.65;;;;;;;21.07;92.77;101136.77;740925;1153;115173;-76
2022/07/02 20:28:21;;;;;;;13.20;6.20;;;;;;;20.71;94.44;101132.15;740814;1155;115015;-76
2022/07/02 20:43:24;;;;;;;7.80;3.60;;;;;;;20.45;96.11;101136.00;740149;1155;115227;-75
2022/07/02 20:58:27;;;;;;;5.98;3.93;;;;;;;20.13;97.42;101148.58;740257;1154;115030;-76
2022/07/02 21:13:29;;;;;;;6.90;3.73;;;;;;;19.82;98.28;101159.25;740294;1153;114583;-75
2022/07/02 21:28:35;;;;;;;11.70;4.80;;;;;;;19.42;100.00;101169.89;740353;1155;115547;-75
2022/07/02 21:43:39;;;;;;;12.18;5.33;;;;;;;19.25;100.00;101164.61;740363;1155;116008;-75
2022/07/02 21:58:42;;;;;;;14.83;6.63;;;;;;;18.94;100.00;101186.63;740688;1154;116191;-76
2022/07/02 22:13:44;;;;;;;9.37;5.67;;;;;;;18.59;100.00;101185.13;740015;1153;115420;-76
2022/07/02 22:28:47;;;;;;;16.98;6.10;;;;;;;18.24;100.00;101193.23;739985;1155;115337;-75
2022/07/02 22:43:54;;;;;;;6.87;5.10;;;;;;;18.08;100.00;101183.42;740039;1153;114701;-76
2022/07/02 22:58:56;;;;;;;13.23;6.23;;;;;;;17.88;100.00;101190.81;740155;1153;115347;-76
2022/07/02 23:13:58;;;;;;;16.15;7.73;;;;;;;17.70;100.00;101196.21;740590;1155;115444;-77
2022/07/02 23:29:01;;;;;;;10.90;4.90;;;;;;;17.43;100.00;101205.20;740773;1155;114758;-78
2022/07/02 23:44:04;;;;;;;8.83;4.53;;;;;;;17.26;100.00;101205.13;740389;1153;116005;-78
2022/07/02 23:59:07;;;;;;;10.28;4.33;;;;;;;17.04;100.00;101193.22;740753;1155;115274;-78
